createdAt,value
2022-10-22T00:00:38.996Z,97961.38
2022-10-22T00:03:05.939Z,97959.09
2022-10-22T00:05:37.015Z,97954.66
2022-10-22T00:08:05.024Z,97953.72
2022-10-22T00:10:32.060Z,97948.88
2022-10-22T00:12:59.199Z,97950.59
2022-10-22T00:15:26.550Z,97943.66
2022-10-22T00:17:53.615Z,97942.78
2022-10-22T00:20:20.835Z,97942.09
2022-10-22T00:22:47.900Z,97937.75
2022-10-22T00:25:15.457Z,97940.28
2022-10-22T00:27:42.905Z,97939.28
2022-10-22T00:30:11.834Z,97937.75
2022-10-22T00:32:39.206Z,97937.56
2022-10-22T00:35:07.842Z,97929.00
2022-10-22T00:37:35.116Z,97928.16
2022-10-22T00:40:02.116Z,97927.41
2022-10-22T00:42:32.426Z,97914.72
2022-10-22T00:45:09.082Z,97912.69
2022-10-22T00:47:40.223Z,97905.47
2022-10-22T00:50:12.987Z,97904.47
2022-10-22T00:52:40.664Z,97906.22
2022-10-22T00:55:08.486Z,97904.47
2022-10-22T00:57:36.511Z,97907.81
2022-10-22T01:00:05.504Z,97898.75
2022-10-22T01:02:32.988Z,97900.16
2022-10-22T01:05:00.093Z,97877.91
2022-10-22T01:07:27.388Z,97882.09
2022-10-22T01:10:02.952Z,97887.31
2022-10-22T01:12:42.660Z,97885.63
2022-10-22T01:15:42.363Z,97873.78
2022-10-22T01:18:09.294Z,97880.41
2022-10-22T01:20:54.453Z,97872.56
2022-10-22T01:23:55.764Z,97878.56
2022-10-22T01:26:27.924Z,97878.56
2022-10-22T01:29:02.661Z,97878.41
2022-10-22T01:31:35.285Z,97875.97
2022-10-22T01:34:04.006Z,97876.97
2022-10-22T01:36:33.532Z,97876.91
2022-10-22T01:39:02.159Z,97880.34
2022-10-22T01:41:29.693Z,97878.56
2022-10-22T01:43:57.226Z,97873.34
2022-10-22T01:46:27.294Z,97869.81
2022-10-22T01:49:13.168Z,97879.22
2022-10-22T01:51:49.592Z,97873.19
2022-10-22T01:54:34.759Z,97870.81
2022-10-22T01:57:20.524Z,97877.22
2022-10-22T01:59:58.961Z,97875.34
2022-10-22T02:02:31.510Z,97877.22
2022-10-22T02:05:09.799Z,97872.16
2022-10-22T02:07:43.852Z,97873.00
2022-10-22T02:10:12.391Z,97878.16
2022-10-22T02:12:41.757Z,97873.84
2022-10-22T02:15:11.051Z,97883.44
2022-10-22T02:17:39.894Z,97881.75
2022-10-22T02:20:13.242Z,97869.16
2022-10-22T02:22:40.635Z,97880.50
2022-10-22T02:25:09.340Z,97873.69
2022-10-22T02:27:45.555Z,97879.91
2022-10-22T02:30:19.558Z,97869.06
2022-10-22T02:33:04.782Z,97874.84
2022-10-22T02:35:32.459Z,97859.75
2022-10-22T02:38:00.840Z,97875.03
2022-10-22T02:40:30.796Z,97868.13
2022-10-22T02:42:57.930Z,97878.72
2022-10-22T02:45:25.023Z,97876.06
2022-10-22T02:47:52.632Z,97864.13
2022-10-22T02:50:19.585Z,97860.47
2022-10-22T02:52:49.526Z,97865.13
2022-10-22T02:55:16.454Z,97861.41
2022-10-22T02:57:43.650Z,97859.66
2022-10-22T03:00:11.820Z,97856.03
2022-10-22T03:02:38.589Z,97852.59
2022-10-22T03:05:06.360Z,97845.94
2022-10-22T03:07:33.465Z,97849.66
2022-10-22T03:10:00.609Z,97864.13
2022-10-22T03:12:27.971Z,97854.69
2022-10-22T03:14:55.198Z,97858.22
2022-10-22T03:17:22.353Z,97862.41
2022-10-22T03:19:49.480Z,97853.34
2022-10-22T03:22:23.672Z,97859.22
2022-10-22T03:24:55.863Z,97853.25
2022-10-22T03:27:23.659Z,97853.34
2022-10-22T03:29:52.887Z,97839.56
2022-10-22T03:32:20.390Z,97836.72
2022-10-22T03:34:47.799Z,97830.47
2022-10-22T03:37:15.181Z,97819.22
2022-10-22T03:39:42.177Z,97818.38
2022-10-22T03:42:09.656Z,97810.50
2022-10-22T03:44:38.852Z,97821.59
2022-10-22T03:47:06.309Z,97822.25
2022-10-22T03:49:33.685Z,97814.19
2022-10-22T03:52:14.606Z,97824.59
2022-10-22T03:54:42.725Z,97803.25
2022-10-22T03:57:10.076Z,97809.81
2022-10-22T03:59:40.018Z,97817.63
2022-10-22T04:02:07.697Z,97804.44
2022-10-22T04:04:34.706Z,97808.56
2022-10-22T04:07:01.590Z,97818.97
2022-10-22T04:09:31.162Z,97811.31
2022-10-22T04:11:58.298Z,97805.13
2022-10-22T04:14:25.311Z,97807.06
2022-10-22T04:16:52.595Z,97798.31
2022-10-22T04:19:19.825Z,97790.66
2022-10-22T04:21:46.776Z,97792.69
2022-10-22T04:24:13.740Z,97793.00
2022-10-22T04:26:40.837Z,97788.06
2022-10-22T04:29:11.857Z,97784.78
2022-10-22T04:31:42.255Z,97784.78
2022-10-22T04:34:09.423Z,97783.09
2022-10-22T04:36:36.378Z,97775.03
2022-10-22T04:39:04.632Z,97773.28
2022-10-22T04:41:38.928Z,97773.69
2022-10-22T04:44:11.030Z,97772.84
2022-10-22T04:46:42.525Z,97752.03
2022-10-22T04:49:09.550Z,97760.09
2022-10-22T04:51:36.657Z,97755.06
2022-10-22T04:54:03.801Z,97761.94
2022-10-22T04:56:32.510Z,97759.16
2022-10-22T04:59:02.246Z,97761.94
2022-10-22T05:01:36.972Z,97754.63
2022-10-22T05:04:07.937Z,97768.47
2022-10-22T05:06:36.410Z,97772.94
2022-10-22T05:09:09.585Z,97765.13
2022-10-22T05:11:39.037Z,97762.97
2022-10-22T05:14:08.021Z,97755.03
2022-10-22T05:16:36.433Z,97754.06
2022-10-22T05:19:04.299Z,97750.09
2022-10-22T05:21:31.565Z,97754.69
2022-10-22T05:24:02.262Z,97759.75
2022-10-22T05:26:29.644Z,97764.47
2022-10-22T05:28:57.874Z,97762.41
2022-10-22T05:31:25.037Z,97771.91
2022-10-22T05:33:52.083Z,97769.81
2022-10-22T05:36:21.404Z,97776.75
2022-10-22T05:38:49.704Z,97774.47
2022-10-22T05:41:19.586Z,97777.84
2022-10-22T05:43:46.686Z,97795.19
2022-10-22T05:46:22.506Z,97793.91
2022-10-22T05:48:53.679Z,97787.53
2022-10-22T05:51:22.651Z,97792.88
2022-10-22T05:53:53.630Z,97790.66
2022-10-22T05:56:21.885Z,97808.00
2022-10-22T05:58:49.396Z,97805.22
2022-10-22T06:01:18.997Z,97808.00
2022-10-22T06:03:46.779Z,97808.53
2022-10-22T06:06:26.521Z,97821.25
2022-10-22T06:08:55.009Z,97825.97
2022-10-22T06:11:23.645Z,97827.63
2022-10-22T06:13:51.571Z,97819.69
2022-10-22T06:16:18.865Z,97815.88
2022-10-22T06:18:45.928Z,97827.94
2022-10-22T06:21:15.292Z,97835.34
2022-10-22T06:23:43.591Z,97825.31
2022-10-22T06:26:11.520Z,97830.75
2022-10-22T06:28:39.050Z,97832.94
2022-10-22T06:31:07.096Z,97836.84
2022-10-22T06:33:34.694Z,97842.66
2022-10-22T06:36:10.164Z,97831.44
2022-10-22T06:38:37.446Z,97845.00
2022-10-22T06:41:06.507Z,97839.44
2022-10-22T06:43:33.645Z,97849.75
2022-10-22T06:46:07.440Z,97832.31
2022-10-22T06:48:36.275Z,97820.31
2022-10-22T06:51:05.567Z,97831.75
2022-10-22T06:53:33.261Z,97824.41
2022-10-22T06:56:04.808Z,97826.16
2022-10-22T06:58:31.751Z,97824.22
2022-10-22T07:01:09.610Z,97829.44
2022-10-22T07:03:37.183Z,97821.28
2022-10-22T07:06:06.723Z,97828.53
2022-10-22T07:08:34.458Z,97830.44
2022-10-22T07:11:22.849Z,97820.66
2022-10-22T07:13:50.878Z,97825.41
2022-10-22T07:16:18.130Z,97823.91
2022-10-22T07:18:45.900Z,97814.34
2022-10-22T07:21:14.472Z,97819.53
2022-10-22T07:23:41.383Z,97802.38
2022-10-22T07:26:08.970Z,97800.06
2022-10-22T07:28:40.369Z,97808.28
2022-10-22T07:31:14.846Z,97813.50
2022-10-22T07:33:41.930Z,97810.81
2022-10-22T07:36:11.715Z,97809.91
2022-10-22T07:38:38.685Z,97796.72
2022-10-22T07:41:05.886Z,97806.19
2022-10-22T07:43:32.852Z,97802.84
2022-10-22T07:46:00.671Z,97808.69
2022-10-22T07:48:27.940Z,97811.31
2022-10-22T07:50:55.635Z,97795.16
2022-10-22T07:53:25.255Z,97788.91
2022-10-22T07:55:52.919Z,97790.41
2022-10-22T07:58:21.274Z,97776.56
2022-10-22T08:00:49.793Z,97773.91
2022-10-22T08:03:18.450Z,97774.31
2022-10-22T08:05:45.988Z,97766.34
2022-10-22T08:08:15.856Z,97760.94
2022-10-22T08:10:43.740Z,97752.22
2022-10-22T08:13:13.974Z,97754.94
2022-10-22T08:18:16.980Z,97742.50
2022-10-22T08:20:45.637Z,97739.94
2022-10-22T08:23:13.233Z,97749.34
2022-10-22T08:25:40.710Z,97734.13
2022-10-22T08:28:08.168Z,97733.69
2022-10-22T08:30:38.581Z,97737.53
2022-10-22T08:33:06.259Z,97734.25
2022-10-22T08:35:33.942Z,97734.09
2022-10-22T08:38:01.417Z,97729.97
2022-10-22T08:40:39.293Z,97717.31
2022-10-22T08:43:13.476Z,97717.34
2022-10-22T08:45:57.709Z,97730.34
2022-10-22T08:48:51.896Z,97720.03
2022-10-22T08:51:25.990Z,97718.69
2022-10-22T08:54:28.884Z,97717.72
2022-10-22T08:57:13.905Z,97717.25
2022-10-22T09:00:01.515Z,97715.09
2022-10-22T09:02:53.670Z,97703.75
2022-10-22T09:05:46.549Z,97701.53
2022-10-22T09:08:17.924Z,97691.22
2022-10-22T09:11:03.031Z,97689.88
2022-10-22T09:13:30.735Z,97694.13
2022-10-22T09:16:14.088Z,97673.81
2022-10-22T09:19:09.088Z,97686.25
2022-10-22T09:22:13.326Z,97682.81
2022-10-22T09:24:47.024Z,97676.78
2022-10-22T09:27:23.857Z,97674.03
2022-10-22T09:29:50.886Z,97661.63
2022-10-22T09:32:18.216Z,97651.94
2022-10-22T09:34:46.865Z,97651.44
2022-10-22T09:37:18.819Z,97654.06
2022-10-22T09:39:48.479Z,97645.81
2022-10-22T09:42:17.631Z,97649.13
2022-10-22T09:44:50.587Z,97646.56
2022-10-22T09:47:43.166Z,97647.22
2022-10-22T09:50:30.029Z,97635.38
2022-10-22T09:53:19.756Z,97635.25
2022-10-22T09:55:53.259Z,97635.34
2022-10-22T09:58:20.859Z,97635.72
2022-10-22T10:00:54.041Z,97622.09
2022-10-22T10:03:24.249Z,97621.28
2022-10-22T10:06:09.400Z,97620.03
2022-10-22T10:08:36.453Z,97605.56
2022-10-22T10:11:11.095Z,97613.97
2022-10-22T10:13:58.618Z,97602.16
2022-10-22T10:16:41.660Z,97597.97
2022-10-22T10:19:27.545Z,97595.03
2022-10-22T10:22:22.181Z,97593.88
2022-10-22T10:25:22.382Z,97587.47
2022-10-22T10:28:07.173Z,97593.75
2022-10-22T10:30:40.045Z,97586.00
2022-10-22T10:33:33.196Z,97576.56
2022-10-22T10:36:20.009Z,97580.13
2022-10-22T10:39:07.174Z,97565.06
2022-10-22T10:41:52.423Z,97562.97
2022-10-22T10:44:53.050Z,97559.91
2022-10-22T10:47:38.380Z,97561.72
2022-10-22T10:50:28.600Z,97571.00
2022-10-22T10:53:25.488Z,97560.09
2022-10-22T10:56:11.424Z,97565.38
2022-10-22T10:59:04.651Z,97555.44
2022-10-22T11:02:10.144Z,97562.41
2022-10-22T11:05:04.819Z,97562.16
2022-10-22T11:07:45.610Z,97552.44
2022-10-22T11:10:27.519Z,97542.72
2022-10-22T11:13:02.274Z,97553.28
2022-10-22T11:15:37.872Z,97544.38
2022-10-22T11:18:17.465Z,97545.22
2022-10-22T11:21:09.501Z,97540.06
2022-10-22T11:23:41.652Z,97546.03
2022-10-22T11:26:16.140Z,97540.47
2022-10-22T11:28:49.179Z,97525.31
2022-10-22T11:31:18.015Z,97529.19
2022-10-22T11:34:33.588Z,97508.53
2022-10-22T11:37:03.006Z,97525.38
2022-10-22T11:39:39.583Z,97524.94
2022-10-22T11:42:22.129Z,97519.97
2022-10-22T11:44:58.951Z,97510.38
2022-10-22T11:47:28.554Z,97510.47
2022-10-22T11:50:43.690Z,97500.53
2022-10-22T11:53:13.683Z,97505.75
2022-10-22T11:55:46.168Z,97498.72
2022-10-22T11:58:42.474Z,97498.72
2022-10-22T12:01:09.420Z,97498.56
2022-10-22T12:03:51.747Z,97491.97
2022-10-22T12:06:26.543Z,97485.97
2022-10-22T12:08:54.006Z,97489.34
2022-10-22T12:11:29.932Z,97479.94
2022-10-22T12:14:23.304Z,97479.94
2022-10-22T12:16:56.950Z,97481.78
2022-10-22T12:19:31.516Z,97474.97
2022-10-22T12:22:27.589Z,97466.47
2022-10-22T12:24:59.399Z,97465.06
2022-10-22T12:27:37.314Z,97460.69
2022-10-22T12:30:24.027Z,97460.88
2022-10-22T12:33:02.882Z,97466.25
2022-10-22T12:35:32.136Z,97455.69
2022-10-22T12:38:03.065Z,97459.66
2022-10-22T12:40:34.336Z,97454.28
2022-10-22T12:43:17.624Z,97455.94
2022-10-22T12:45:47.926Z,97446.59
2022-10-22T12:48:28.513Z,97449.53
2022-10-22T12:51:00.520Z,97444.44
2022-10-22T12:53:34.448Z,97445.34
2022-10-22T12:56:12.495Z,97447.63
2022-10-22T12:58:44.938Z,97456.75
2022-10-22T13:01:14.074Z,97445.69
2022-10-22T13:03:50.636Z,97455.88
2022-10-22T13:06:20.529Z,97450.78
2022-10-22T13:09:19.689Z,97450.41
2022-10-22T13:12:08.180Z,97456.91
2022-10-22T13:14:38.446Z,97454.13
2022-10-22T13:17:18.008Z,97457.22
2022-10-22T13:19:52.358Z,97459.28
2022-10-22T13:22:35.305Z,97448.56
2022-10-22T13:25:30.407Z,97448.19
2022-10-22T13:28:11.068Z,97455.63
2022-10-22T13:30:39.671Z,97454.41
2022-10-22T13:33:26.869Z,97447.44
2022-10-22T13:35:54.607Z,97444.78
2022-10-22T13:38:24.339Z,97439.22
2022-10-22T13:40:51.838Z,97443.34
2022-10-22T13:43:19.585Z,97436.53
2022-10-22T13:45:48.557Z,97438.81
2022-10-22T13:48:19.368Z,97437.97
2022-10-22T13:50:48.220Z,97437.19
2022-10-22T13:53:36.261Z,97435.94
2022-10-22T13:56:03.107Z,97438.38
2022-10-22T13:58:30.818Z,97440.00
2022-10-22T14:00:59.478Z,97437.06
2022-10-22T14:03:34.896Z,97436.59
2022-10-22T14:06:02.014Z,97429.53
2022-10-22T14:08:29.049Z,97438.97
2022-10-22T14:10:56.193Z,97427.75
2022-10-22T14:13:23.089Z,97436.78
2022-10-22T14:15:52.243Z,97440.97
2022-10-22T14:18:31.743Z,97432.41
2022-10-22T14:21:01.347Z,97431.31
2022-10-22T14:23:31.035Z,97426.25
2022-10-22T14:26:00.250Z,97427.34
2022-10-22T14:28:27.304Z,97420.88
2022-10-22T14:30:55.173Z,97418.19
2022-10-22T14:33:29.030Z,97423.59
2022-10-22T14:35:59.140Z,97433.75
2022-10-22T14:38:26.352Z,97438.28
2022-10-22T14:40:53.880Z,97432.91
2022-10-22T14:43:28.834Z,97427.56
2022-10-22T14:45:56.269Z,97433.06
2022-10-22T14:48:24.132Z,97424.09
2022-10-22T14:50:52.069Z,97426.56
2022-10-22T14:53:19.074Z,97424.69
2022-10-22T14:55:47.668Z,97433.13
2022-10-22T14:58:15.315Z,97424.56
2022-10-22T15:00:43.023Z,97432.16
2022-10-22T15:03:11.801Z,97435.03
2022-10-22T15:05:44.744Z,97422.81
2022-10-22T15:08:13.637Z,97433.50
2022-10-22T15:10:41.708Z,97430.09
2022-10-22T15:13:09.364Z,97435.28
2022-10-22T15:15:39.446Z,97433.50
2022-10-22T15:18:10.675Z,97433.44
2022-10-22T15:20:37.758Z,97439.81
2022-10-22T15:23:04.802Z,97444.88
2022-10-22T15:25:31.903Z,97439.59
2022-10-22T15:28:04.690Z,97445.25
2022-10-22T15:30:36.119Z,97445.28
2022-10-22T15:33:03.356Z,97440.34
2022-10-22T15:35:30.295Z,97449.34
2022-10-22T15:37:57.304Z,97455.66
2022-10-22T15:40:24.568Z,97457.84
2022-10-22T15:42:51.534Z,97460.38
2022-10-22T15:45:18.459Z,97464.34
2022-10-22T15:47:47.679Z,97465.34
2022-10-22T15:50:15.222Z,97470.03
2022-10-22T15:52:42.424Z,97477.00
2022-10-22T15:55:10.829Z,97477.31
2022-10-22T15:57:39.500Z,97478.25
2022-10-22T16:00:08.146Z,97471.94
2022-10-22T16:02:36.158Z,97483.25
2022-10-22T16:05:03.212Z,97484.53
2022-10-22T16:07:30.601Z,97485.66
2022-10-22T16:10:01.744Z,97489.13
2022-10-22T16:12:29.111Z,97500.03
2022-10-22T16:14:56.032Z,97496.84
2022-10-22T16:17:23.536Z,97499.31
2022-10-22T16:19:50.498Z,97507.41
2022-10-22T16:22:17.508Z,97502.91
2022-10-22T16:24:44.622Z,97501.16
2022-10-22T16:27:11.651Z,97509.34
2022-10-22T16:29:42.283Z,97505.28
2022-10-22T16:32:09.436Z,97505.41
2022-10-22T16:34:36.332Z,97521.59
2022-10-22T16:37:04.925Z,97507.59
2022-10-22T16:39:31.851Z,97513.69
2022-10-22T16:41:58.731Z,97528.34
2022-10-22T16:44:25.723Z,97524.19
2022-10-22T16:46:53.311Z,97529.09
2022-10-22T16:49:20.277Z,97539.50
2022-10-22T16:51:47.400Z,97539.25
2022-10-22T16:54:15.933Z,97544.97
2022-10-22T16:56:43.030Z,97541.44
2022-10-22T16:59:10.482Z,97532.97
2022-10-22T17:01:41.004Z,97539.31
2022-10-22T17:04:08.979Z,97538.25
2022-10-22T17:06:35.963Z,97547.09
2022-10-22T17:09:03.268Z,97561.03
2022-10-22T17:11:35.706Z,97557.41
2022-10-22T17:14:04.382Z,97552.50
2022-10-22T17:16:31.533Z,97550.88
2022-10-22T17:18:58.793Z,97554.78
2022-10-22T17:21:26.444Z,97562.31
2022-10-22T17:23:57.136Z,97559.28
2022-10-22T17:26:26.964Z,97554.72
2022-10-22T17:28:54.975Z,97546.16
2022-10-22T17:31:28.914Z,97549.63
2022-10-22T17:33:57.626Z,97546.31
2022-10-22T17:36:28.330Z,97547.56
2022-10-22T17:38:59.593Z,97546.47
2022-10-22T17:41:34.956Z,97547.72
2022-10-22T17:44:04.792Z,97551.63
2022-10-22T17:46:33.142Z,97557.19
2022-10-22T17:49:03.449Z,97559.41
2022-10-22T17:51:31.511Z,97558.31
2022-10-22T17:53:59.043Z,97554.28
2022-10-22T17:56:30.065Z,97556.94
2022-10-22T17:58:57.209Z,97569.44
2022-10-22T18:01:33.038Z,97562.22
2022-10-22T18:04:02.687Z,97561.38
2022-10-22T18:06:30.276Z,97565.28
2022-10-22T18:08:57.482Z,97563.19
2022-10-22T18:11:26.601Z,97573.91
2022-10-22T18:13:56.818Z,97567.50
2022-10-22T18:16:25.627Z,97551.53
2022-10-22T18:18:55.314Z,97560.56
2022-10-22T18:21:24.269Z,97560.00
2022-10-22T18:23:52.089Z,97549.44
2022-10-22T18:26:24.285Z,97564.72
2022-10-22T18:28:54.962Z,97553.63
2022-10-22T18:31:25.028Z,97558.88
2022-10-22T18:36:28.029Z,97543.19
2022-10-22T18:38:58.354Z,97538.63
2022-10-22T18:41:26.957Z,97536.66
2022-10-22T18:43:57.152Z,97526.09
2022-10-22T18:46:25.452Z,97526.97
2022-10-22T18:48:56.999Z,97528.34
2022-10-22T18:51:31.093Z,97521.81
2022-10-22T18:54:05.793Z,97524.19
2022-10-22T18:56:41.060Z,97531.13
2022-10-22T18:59:16.051Z,97519.88
2022-10-22T19:01:43.309Z,97514.19
2022-10-22T19:04:10.865Z,97511.81
2022-10-22T19:06:40.681Z,97508.22
2022-10-22T19:09:10.868Z,97510.44
2022-10-22T19:11:38.498Z,97514.19
2022-10-22T19:14:05.844Z,97517.09
2022-10-22T19:16:35.311Z,97515.28
2022-10-22T19:19:09.441Z,97507.50
2022-10-22T19:21:39.489Z,97519.84
2022-10-22T19:24:25.159Z,97517.75
2022-10-22T19:27:00.500Z,97511.78
2022-10-22T19:29:34.811Z,97511.25
2022-10-22T19:32:04.953Z,97511.94
2022-10-22T19:34:35.131Z,97520.53
2022-10-22T19:37:03.644Z,97519.53
2022-10-22T19:39:33.555Z,97513.28
2022-10-22T19:42:02.419Z,97511.34
2022-10-22T19:44:37.170Z,97516.47
2022-10-22T19:47:08.131Z,97525.44
2022-10-22T19:49:36.169Z,97529.19
2022-10-22T19:52:05.121Z,97515.84
2022-10-22T19:54:34.336Z,97524.28
2022-10-22T19:59:32.591Z,97520.59
2022-10-22T20:02:07.583Z,97531.41
2022-10-22T20:04:38.490Z,97530.25
2022-10-22T20:07:08.812Z,97533.28
2022-10-22T20:09:43.152Z,97515.94
2022-10-22T20:12:17.284Z,97534.66
2022-10-22T20:14:44.809Z,97537.09
2022-10-22T20:17:13.012Z,97537.09
2022-10-22T20:19:41.693Z,97523.50
2022-10-22T20:22:09.637Z,97533.19
2022-10-22T20:24:40.597Z,97522.56
2022-10-22T20:27:08.838Z,97525.47
2022-10-22T20:29:36.610Z,97535.03
2022-10-22T20:32:06.742Z,97527.41
2022-10-22T20:34:37.159Z,97526.69
2022-10-22T20:37:05.196Z,97530.53
2022-10-22T20:39:33.266Z,97530.28
2022-10-22T20:42:02.193Z,97537.03
2022-10-22T20:44:31.126Z,97534.38
2022-10-22T20:47:01.097Z,97529.97
2022-10-22T20:49:28.955Z,97517.19
2022-10-22T20:51:56.972Z,97518.53
2022-10-22T20:54:24.855Z,97516.88
2022-10-22T20:56:52.578Z,97513.91
2022-10-22T20:59:19.674Z,97519.66
2022-10-22T21:01:52.250Z,97521.06
2022-10-22T21:04:21.561Z,97524.66
2022-10-22T21:06:50.363Z,97522.53
2022-10-22T21:09:19.555Z,97510.84
2022-10-22T21:11:48.237Z,97520.28
2022-10-22T21:14:17.258Z,97517.66
2022-10-22T21:16:45.952Z,97523.03
2022-10-22T21:19:13.089Z,97513.97
2022-10-22T21:21:40.270Z,97510.91
2022-10-22T21:24:09.996Z,97505.19
2022-10-22T21:26:38.592Z,97502.84
2022-10-22T21:29:05.703Z,97502.84
2022-10-22T21:31:32.652Z,97495.69
2022-10-22T21:33:59.729Z,97496.66
2022-10-22T21:36:26.805Z,97500.75
2022-10-22T21:38:54.787Z,97498.81
2022-10-22T21:41:22.814Z,97500.50
2022-10-22T21:43:51.134Z,97483.56
2022-10-22T21:46:21.095Z,97491.06
2022-10-22T21:48:53.457Z,97493.56
2022-10-22T21:51:21.079Z,97479.97
2022-10-22T21:53:48.811Z,97478.56
2022-10-22T21:56:21.419Z,97470.19
2022-10-22T21:58:48.600Z,97476.03
2022-10-22T22:01:16.592Z,97478.56
2022-10-22T22:03:44.363Z,97481.88
2022-10-22T22:06:11.544Z,97480.72
2022-10-22T22:08:39.002Z,97476.22
2022-10-22T22:11:12.959Z,97481.22
2022-10-22T22:13:40.855Z,97472.88
2022-10-22T22:16:12.923Z,97470.00
2022-10-22T22:18:40.902Z,97469.06
2022-10-22T22:21:11.999Z,97472.88
2022-10-22T22:23:41.192Z,97477.81
2022-10-22T22:26:08.950Z,97472.81
2022-10-22T22:28:36.757Z,97477.69
2022-10-22T22:31:17.727Z,97473.38
2022-10-22T22:33:45.259Z,97479.34
2022-10-22T22:36:12.287Z,97478.41
2022-10-22T22:38:39.668Z,97469.56
2022-10-22T22:41:07.715Z,97467.19
2022-10-22T22:43:35.681Z,97468.38
2022-10-22T22:46:03.351Z,97472.56
2022-10-22T22:48:30.971Z,97474.22
2022-10-22T22:51:00.251Z,97475.78
2022-10-22T22:53:28.456Z,97474.66
2022-10-22T22:56:18.254Z,97483.97
2022-10-22T22:58:45.817Z,97473.34
2022-10-22T23:01:25.462Z,97474.75
2022-10-22T23:04:03.994Z,97461.88
2022-10-22T23:06:35.055Z,97466.88
2022-10-22T23:09:03.141Z,97461.88
2022-10-22T23:11:29.913Z,97459.00
2022-10-22T23:14:15.588Z,97450.22
2022-10-22T23:16:48.387Z,97456.53
2022-10-22T23:19:18.171Z,97453.78
2022-10-22T23:21:48.711Z,97460.72
2022-10-22T23:24:18.264Z,97455.59
2022-10-22T23:26:48.103Z,97450.22
2022-10-22T23:29:24.618Z,97458.81
2022-10-22T23:31:52.141Z,97446.59
2022-10-22T23:34:22.225Z,97445.19
2022-10-22T23:36:49.595Z,97444.38
2022-10-22T23:39:19.713Z,97442.56
2022-10-22T23:41:46.935Z,97428.16
2022-10-22T23:44:14.553Z,97439.00
2022-10-22T23:46:41.838Z,97437.06
2022-10-22T23:49:09.569Z,97423.94
2022-10-22T23:51:37.147Z,97428.94
2022-10-22T23:54:08.237Z,97419.66
2022-10-22T23:56:36.066Z,97431.44
2022-10-22T23:59:03.596Z,97427.16
